Time;durP1;ratioP1;P1;durP2;ratioP2;P2;SDS_P1;SDS_P2;PMS_P1;PMS_P2;Temp;Humidity;BMP_temperature;BMP_pressure;BME280_temperature;BME280_humidity;BME280_pressure;Samples;Min_cycle;Max_cycle;Signal;HPM_P1;HPM_P2
2022/03/11 00:00:37;;;;;;;20.08;10.18;;;;;;;8.49;35.08;101444.91;5061015;28;20061;-63
2022/03/11 00:03:07;;;;;;;22.15;10.05;;;;;;;8.45;33.92;101440.84;5072912;28;20048;-63
2022/03/11 00:05:33;;;;;;;29.45;9.85;;;;;;;8.47;34.84;101438.06;5077546;28;20043;-63
2022/03/11 00:08:00;;;;;;;24.30;9.95;;;;;;;8.40;33.89;101438.53;5095157;28;20040;-63
2022/03/11 00:10:27;;;;;;;21.58;9.00;;;;;;;8.49;33.93;101438.78;5095095;28;20036;-63
2022/03/11 00:12:54;;;;;;;21.45;9.02;;;;;;;8.43;34.34;101433.03;5077263;28;20044;-64
2022/03/11 00:15:21;;;;;;;19.27;8.50;;;;;;;8.58;34.01;101435.41;5094058;28;20106;-64
2022/03/11 00:17:48;;;;;;;21.65;10.35;;;;;;;8.45;34.47;101435.53;5095036;28;20042;-64
2022/03/11 00:20:19;;;;;;;23.42;9.05;;;;;;;8.44;34.14;101431.19;5060647;28;20071;-64
2022/03/11 00:22:47;;;;;;;19.58;9.32;;;;;;;8.42;34.40;101430.50;5048707;28;20127;-64
2022/03/11 00:25:14;;;;;;;22.17;9.68;;;;;;;8.45;34.38;101431.09;5076971;28;20097;-64
2022/03/11 00:27:41;;;;;;;19.20;9.07;;;;;;;8.38;34.05;101431.69;5076973;28;20051;-64
2022/03/11 00:30:08;;;;;;;18.90;9.00;;;;;;;8.37;34.43;101430.00;5094801;28;20047;-64
2022/03/11 00:32:35;;;;;;;22.13;8.68;;;;;;;8.38;34.68;101429.88;5077029;28;20097;-64
2022/03/11 00:35:04;;;;;;;18.10;8.15;;;;;;;8.32;34.62;101437.47;5093771;28;20090;-64
2022/03/11 00:37:30;;;;;;;21.73;8.77;;;;;;;8.35;34.57;101435.41;5043799;28;20051;-64
2022/03/11 00:39:57;;;;;;;22.98;8.43;;;;;;;8.24;34.62;101435.41;5060166;28;20101;-64
2022/03/11 00:42:24;;;;;;;18.52;9.00;;;;;;;8.28;34.16;101439.50;5093200;28;20051;-64
2022/03/11 00:44:50;;;;;;;19.58;8.57;;;;;;;8.30;34.01;101439.41;5076632;28;20443;-64
2022/03/11 00:47:17;;;;;;;22.08;8.57;;;;;;;8.29;34.39;101443.00;5043876;28;20043;-64
2022/03/11 00:49:44;;;;;;;19.25;8.52;;;;;;;8.28;34.21;101442.16;5076614;28;20040;-64
2022/03/11 00:52:11;;;;;;;18.58;8.77;;;;;;;8.19;34.31;101443.72;5076477;28;20044;-64
2022/03/11 00:54:38;;;;;;;17.63;8.35;;;;;;;8.29;34.15;101446.47;5067393;28;20044;-64
2022/03/11 00:57:05;;;;;;;29.02;9.27;;;;;;;8.21;33.84;101440.97;5076216;28;20404;-64
2022/03/11 00:59:31;;;;;;;20.88;8.55;;;;;;;8.23;34.38;101437.22;5076333;28;20078;-64
2022/03/11 01:01:58;;;;;;;23.42;8.65;;;;;;;8.12;34.47;101431.13;5092083;28;20043;-64
2022/03/11 01:04:25;;;;;;;17.63;8.07;;;;;;;8.05;34.51;101434.22;5074153;28;20054;-64
2022/03/11 01:06:51;;;;;;;18.15;7.95;;;;;;;8.06;34.32;101425.34;5075299;28;20040;-64
2022/03/11 01:09:18;;;;;;;20.95;8.68;;;;;;;8.12;34.82;101423.19;5076335;28;20036;-64
2022/03/11 01:11:45;;;;;;;18.33;8.35;;;;;;;8.10;35.22;101420.66;5093106;28;20044;-65
2022/03/11 01:14:12;;;;;;;19.65;8.70;;;;;;;8.02;34.98;101415.13;5093895;28;20168;-64
2022/03/11 01:16:38;;;;;;;20.58;8.82;;;;;;;7.98;34.76;101411.88;5093934;28;20048;-64
2022/03/11 01:19:05;;;;;;;18.10;8.80;;;;;;;7.99;34.80;101410.94;5093975;28;20044;-64
2022/03/11 01:21:32;;;;;;;21.67;9.18;;;;;;;7.94;35.22;101402.53;5093569;28;20408;-64
2022/03/11 01:23:58;;;;;;;25.45;8.63;;;;;;;7.92;35.03;101396.53;5075917;28;20098;-64
2022/03/11 01:26:25;;;;;;;17.13;7.80;;;;;;;7.95;35.72;101400.72;5093937;28;20087;-64
2022/03/11 01:28:53;;;;;;;22.33;8.90;;;;;;;7.90;35.78;101398.44;5093502;28;20040;-65
2022/03/11 01:31:19;;;;;;;20.13;8.75;;;;;;;7.78;35.75;101389.66;5076097;28;20039;-64
2022/03/11 01:33:46;;;;;;;18.90;8.10;;;;;;;7.83;35.90;101389.31;5075546;28;20404;-64
2022/03/11 01:36:13;;;;;;;18.65;8.20;;;;;;;7.82;35.30;101387.63;5093414;28;20167;-64
2022/03/11 01:38:41;;;;;;;18.02;8.02;;;;;;;7.70;35.80;101386.81;5075560;28;20077;-64
2022/03/11 01:41:09;;;;;;;17.52;8.43;;;;;;;7.86;35.69;101389.09;5075636;28;20135;-64
2022/03/11 01:44:07;;;;;;;20.25;9.10;;;;;;;7.72;36.57;101384.88;5059119;28;20044;-64
2022/03/11 01:46:34;;;;;;;21.65;9.43;;;;;;;7.71;36.20;101385.84;5075764;28;20127;-64
2022/03/11 01:49:04;;;;;;;21.52;8.45;;;;;;;7.73;35.88;101386.56;5075226;28;20040;-64
2022/03/11 01:51:37;;;;;;;18.42;8.77;;;;;;;7.67;37.00;101381.75;5075477;28;20039;-64
2022/03/11 01:54:05;;;;;;;20.83;9.32;;;;;;;7.60;36.68;101380.56;5092224;28;20044;-64
2022/03/11 01:56:32;;;;;;;19.48;9.02;;;;;;;7.64;36.68;101382.84;5075396;28;20047;-64
2022/03/11 01:59:00;;;;;;;21.70;9.13;;;;;;;7.63;36.29;101372.41;5093252;28;20218;-64
2022/03/11 02:01:27;;;;;;;20.80;8.90;;;;;;;7.60;36.80;101375.28;5075290;28;20040;-64
2022/03/11 02:03:57;;;;;;;18.75;8.95;;;;;;;7.54;36.94;101373.94;5093226;28;20071;-64
2022/03/11 02:06:26;;;;;;;21.73;8.93;;;;;;;7.49;37.10;101366.41;5054828;28;20052;-64
2022/03/11 02:08:55;;;;;;;21.95;8.93;;;;;;;7.58;36.74;101366.63;5055143;28;20253;-65
2022/03/11 02:11:22;;;;;;;24.70;9.38;;;;;;;7.48;37.20;101367.34;5055412;28;20037;-64
2022/03/11 02:13:53;;;;;;;18.83;8.43;;;;;;;7.35;37.29;101363.13;5055191;28;20521;-64
2022/03/11 02:16:23;;;;;;;20.13;8.57;;;;;;;7.37;37.85;101359.41;5057725;28;20036;-64
2022/03/11 02:18:50;;;;;;;21.98;9.38;;;;;;;7.29;37.33;101360.00;5074688;28;20032;-64
2022/03/11 02:21:18;;;;;;;21.75;9.40;;;;;;;7.33;37.44;101346.56;5074613;28;20055;-64
2022/03/11 02:23:48;;;;;;;21.35;8.98;;;;;;;7.41;37.96;101365.31;5075093;28;20127;-64
2022/03/11 02:26:20;;;;;;;23.48;9.93;;;;;;;7.37;38.09;101358.56;5074953;28;20122;-64
2022/03/11 02:28:49;;;;;;;21.77;9.30;;;;;;;7.35;38.71;101358.69;5091801;28;20055;-65
2022/03/11 02:31:18;;;;;;;24.67;9.50;;;;;;;7.37;38.11;101362.06;5074947;28;20405;-64
2022/03/11 02:33:44;;;;;;;19.20;8.80;;;;;;;7.29;38.12;101359.16;5075152;28;20052;-64
2022/03/11 02:36:11;;;;;;;20.50;9.48;;;;;;;7.27;38.99;101353.16;5054658;28;20099;-64
2022/03/11 02:38:38;;;;;;;31.42;10.13;;;;;;;7.16;38.63;101359.25;5072640;28;20087;-64
2022/03/11 02:41:06;;;;;;;24.02;9.70;;;;;;;7.10;38.97;101351.81;5071590;28;20052;-64
2022/03/11 02:43:33;;;;;;;20.90;9.68;;;;;;;7.15;39.29;101347.03;5055048;28;20497;-64
2022/03/11 02:46:00;;;;;;;22.23;10.10;;;;;;;7.15;38.79;101341.75;5071468;28;20071;-64
2022/03/11 02:48:27;;;;;;;20.85;9.55;;;;;;;7.11;39.35;101348.19;5054622;28;20041;-64
2022/03/11 02:50:54;;;;;;;18.55;9.05;;;;;;;7.11;38.87;101346.41;5054661;28;20063;-64
2022/03/11 02:53:23;;;;;;;24.50;9.52;;;;;;;7.02;39.56;101343.63;5072935;28;20041;-64
2022/03/11 02:55:50;;;;;;;22.08;9.88;;;;;;;7.06;39.92;101342.47;5055013;28;20094;-64
2022/03/11 02:58:17;;;;;;;21.63;9.80;;;;;;;7.07;39.73;101337.03;5054483;28;20411;-64
2022/03/11 03:00:43;;;;;;;23.55;9.57;;;;;;;6.98;40.08;101339.53;5072462;28;20492;-64
2022/03/11 03:03:10;;;;;;;25.80;10.05;;;;;;;7.03;39.99;101345.31;5054816;28;20497;-64
2022/03/11 03:05:37;;;;;;;21.05;9.60;;;;;;;6.97;40.18;101337.84;5066597;28;20385;-64
2022/03/11 03:08:06;;;;;;;23.55;9.93;;;;;;;6.95;40.65;101338.00;5074637;28;20595;-64
2022/03/11 03:10:33;;;;;;;21.75;9.63;;;;;;;6.86;40.28;101331.59;5074754;28;20093;-64
2022/03/11 03:13:02;;;;;;;23.00;10.30;;;;;;;6.85;40.23;101329.91;5092357;28;20426;-64
2022/03/11 03:15:29;;;;;;;22.85;10.02;;;;;;;6.90;41.32;101340.97;5074791;28;20161;-64
2022/03/11 03:17:56;;;;;;;24.98;10.55;;;;;;;6.89;41.23;101336.66;5074600;28;20094;-64
2022/03/11 03:20:23;;;;;;;23.95;9.90;;;;;;;6.87;40.54;101332.44;5065124;28;20069;-64
2022/03/11 03:22:50;;;;;;;20.65;9.85;;;;;;;6.88;40.64;101334.13;5091185;28;20052;-64
2022/03/11 03:25:17;;;;;;;23.27;10.48;;;;;;;6.85;41.14;101331.72;5074481;28;20041;-64
2022/03/11 03:27:43;;;;;;;20.52;9.73;;;;;;;6.77;41.76;101339.34;5074503;28;20385;-64
2022/03/11 03:30:11;;;;;;;23.30;10.45;;;;;;;6.83;40.93;101331.00;5076381;28;20097;-64
2022/03/11 03:32:40;;;;;;;25.33;10.52;;;;;;;6.77;41.52;101328.78;5096276;28;20040;-64
2022/03/11 03:35:07;;;;;;;19.98;9.75;;;;;;;6.78;42.02;101327.84;5095653;28;20051;-64
2022/03/11 03:37:34;;;;;;;33.63;11.55;;;;;;;6.83;41.58;101342.38;5096116;28;20044;-64
2022/03/11 03:40:01;;;;;;;22.42;10.57;;;;;;;6.67;42.08;101329.50;5095655;28;20043;-64
2022/03/11 03:42:28;;;;;;;24.88;10.68;;;;;;;6.72;41.57;101337.91;5096056;28;20040;-64
2022/03/11 03:44:54;;;;;;;26.38;10.50;;;;;;;6.66;41.29;101333.09;5077830;28;20044;-64
2022/03/11 03:47:21;;;;;;;24.30;10.10;;;;;;;6.60;41.34;101333.53;5077824;28;20067;-64
2022/03/11 03:49:48;;;;;;;28.33;11.05;;;;;;;6.53;41.72;101325.25;5077536;28;20552;-64
2022/03/11 03:52:15;;;;;;;23.63;10.40;;;;;;;6.63;42.09;101327.22;5077927;28;20408;-64
2022/03/11 03:54:44;;;;;;;23.10;10.43;;;;;;;6.63;41.73;101324.56;5061612;28;20090;-64
2022/03/11 03:57:11;;;;;;;26.65;11.13;;;;;;;6.60;41.86;101327.44;5061070;28;20044;-64
2022/03/11 03:59:39;;;;;;;24.33;10.50;;;;;;;6.58;42.16;101321.44;5077529;28;20032;-64
2022/03/11 04:02:06;;;;;;;23.23;10.80;;;;;;;6.61;42.45;101329.97;5061234;28;20115;-64
2022/03/11 04:04:34;;;;;;;22.10;10.63;;;;;;;6.58;42.42;101329.34;5057441;28;20045;-64
2022/03/11 04:07:00;;;;;;;23.73;10.35;;;;;;;6.51;42.36;101335.06;5074868;28;20041;-64
2022/03/11 04:09:27;;;;;;;27.20;11.27;;;;;;;6.48;41.87;101329.19;5057559;28;20040;-64
2022/03/11 04:11:54;;;;;;;26.10;11.00;;;;;;;6.42;42.64;101327.84;5080880;28;20111;-64
2022/03/11 04:14:20;;;;;;;23.73;11.13;;;;;;;6.49;42.40;101318.53;5060783;28;20093;-64
2022/03/11 04:16:47;;;;;;;28.75;11.75;;;;;;;6.31;42.60;101322.50;5077413;28;20040;-64
2022/03/11 04:19:14;;;;;;;26.77;11.88;;;;;;;6.27;42.95;101324.53;5095088;28;20042;-64
2022/03/11 04:21:41;;;;;;;26.33;10.85;;;;;;;6.25;43.14;101323.78;5073243;28;20052;-64
2022/03/11 04:24:13;;;;;;;24.77;10.73;;;;;;;6.35;42.41;101323.97;5074056;28;20040;-64
2022/03/11 04:26:41;;;;;;;23.80;11.32;;;;;;;6.40;42.95;101328.91;5073547;28;20489;-64
2022/03/11 04:29:08;;;;;;;24.98;10.88;;;;;;;6.32;42.68;101321.56;5073731;28;20396;-64
2022/03/11 04:31:35;;;;;;;26.42;11.65;;;;;;;6.26;43.04;101316.75;5067449;28;20048;-64
2022/03/11 04:34:02;;;;;;;29.35;11.80;;;;;;;6.30;42.60;101320.84;5090657;28;20059;-64
2022/03/11 04:36:33;;;;;;;27.10;11.60;;;;;;;6.24;43.13;101313.34;5073220;28;20044;-64
2022/03/11 04:39:00;;;;;;;23.27;11.18;;;;;;;6.24;43.70;101314.22;5056934;28;20041;-64
2022/03/11 04:41:27;;;;;;;25.38;11.10;;;;;;;6.23;43.21;101311.69;5074520;28;20055;-64
2022/03/11 04:43:54;;;;;;;25.42;11.38;;;;;;;6.22;43.05;101316.13;5074659;28;20394;-64
2022/03/11 04:46:20;;;;;;;28.42;11.98;;;;;;;6.17;43.26;101327.94;5040041;28;20045;-64
2022/03/11 04:48:47;;;;;;;31.88;12.77;;;;;;;6.17;43.93;101327.94;5073017;28;20411;-64
2022/03/11 04:51:14;;;;;;;27.25;12.20;;;;;;;6.18;43.36;101327.00;5056504;28;20079;-64
2022/03/11 04:53:43;;;;;;;28.77;12.82;;;;;;;6.19;43.40;101331.31;5072928;28;20492;-64
2022/03/11 04:56:12;;;;;;;29.30;12.35;;;;;;;6.10;43.38;101328.38;5056933;28;20412;-64
2022/03/11 04:58:39;;;;;;;31.83;12.00;;;;;;;6.10;43.74;101332.81;5039933;28;20059;-64
2022/03/11 05:01:06;;;;;;;30.55;12.02;;;;;;;6.10;43.61;101331.03;5072980;28;20497;-64
2022/03/11 05:03:34;;;;;;;30.70;12.63;;;;;;;6.14;43.45;101334.28;5089826;28;20052;-64
2022/03/11 05:06:01;;;;;;;30.08;12.93;;;;;;;6.10;43.21;101330.19;5072637;28;20091;-64
2022/03/11 05:08:27;;;;;;;29.75;12.20;;;;;;;6.03;43.70;101323.69;5072642;28;20485;-64
2022/03/11 05:10:54;;;;;;;28.92;12.77;;;;;;;5.95;43.47;101326.84;5056456;28;20037;-64
2022/03/11 05:13:22;;;;;;;30.58;12.75;;;;;;;6.00;43.17;101332.63;5072594;28;20497;-64
2022/03/11 05:15:49;;;;;;;33.40;13.27;;;;;;;6.05;43.79;101337.56;5056278;28;20060;-64
2022/03/11 05:18:16;;;;;;;28.52;12.60;;;;;;;6.02;43.56;101335.16;5072639;28;20044;-64
2022/03/11 05:20:43;;;;;;;31.67;12.73;;;;;;;5.91;44.21;101330.63;5072548;28;20049;-64
2022/03/11 05:23:10;;;;;;;32.15;13.15;;;;;;;5.88;44.21;101333.50;5092667;28;20048;-64
2022/03/11 05:25:37;;;;;;;30.77;14.07;;;;;;;5.89;44.01;101327.25;5059631;28;20048;-65
2022/03/11 05:28:04;;;;;;;29.38;13.70;;;;;;;5.85;44.36;101331.91;5093971;28;20123;-64
2022/03/11 05:30:31;;;;;;;33.22;13.73;;;;;;;5.90;44.44;101326.31;5059242;28;20044;-64
2022/03/11 05:32:57;;;;;;;32.42;13.43;;;;;;;5.84;44.31;101330.22;5094242;28;20044;-64
2022/03/11 05:35:24;;;;;;;31.20;14.23;;;;;;;5.80;44.00;101323.47;5075402;28;20036;-64
2022/03/11 05:37:51;;;;;;;33.53;13.95;;;;;;;5.75;44.89;101320.34;5075673;28;20044;-64
2022/03/11 05:40:18;;;;;;;34.33;13.48;;;;;;;5.73;45.34;101324.84;5075331;28;20040;-64
2022/03/11 05:42:44;;;;;;;35.55;14.32;;;;;;;5.80;45.01;101322.66;5059342;28;20094;-64
2022/03/11 05:45:12;;;;;;;38.63;14.57;;;;;;;5.78;44.89;101325.38;5093484;28;20044;-64
2022/03/11 05:47:39;;;;;;;36.38;13.52;;;;;;;5.72;44.76;101321.38;5042589;28;20393;-64
2022/03/11 05:50:07;;;;;;;32.13;13.63;;;;;;;5.73;44.63;101317.81;5093250;28;20093;-64
2022/03/11 05:52:36;;;;;;;32.63;14.35;;;;;;;5.66;45.03;101319.22;5093110;28;20047;-64
2022/03/11 05:55:04;;;;;;;36.55;14.38;;;;;;;5.61;45.17;101310.78;5092241;28;20443;-65
2022/03/11 05:57:34;;;;;;;34.45;15.18;;;;;;;5.69;44.95;101324.22;5075968;28;20075;-64
2022/03/11 06:00:04;;;;;;;32.38;14.23;;;;;;;5.62;44.54;101311.63;5075147;28;20050;-64
2022/03/11 06:02:41;;;;;;;36.15;15.00;;;;;;;5.57;45.54;101309.31;5085105;28;20047;-64
2022/03/11 06:05:10;;;;;;;34.90;15.07;;;;;;;5.55;45.29;101311.22;5086441;28;20043;-64
2022/03/11 06:07:38;;;;;;;43.75;15.65;;;;;;;5.51;45.69;101312.38;5058609;28;20048;-64
2022/03/11 06:10:06;;;;;;;37.92;15.75;;;;;;;5.55;45.65;101303.34;5092917;28;20040;-64
2022/03/11 06:12:32;;;;;;;34.45;16.15;;;;;;;5.47;45.76;101297.75;5092968;28;20074;-65
2022/03/11 06:14:59;;;;;;;36.95;15.63;;;;;;;5.50;45.72;101295.75;5075257;28;20040;-64
2022/03/11 06:17:26;;;;;;;35.25;15.38;;;;;;;5.51;45.71;101293.94;5074731;28;20036;-64
2022/03/11 06:19:52;;;;;;;32.10;15.70;;;;;;;5.60;45.38;101295.09;5092715;28;20048;-64
2022/03/11 06:22:19;;;;;;;38.13;15.02;;;;;;;5.57;45.54;101297.00;5054511;28;20056;-64
2022/03/11 06:24:46;;;;;;;42.53;16.95;;;;;;;5.52;45.85;101298.28;5055383;28;20048;-65
2022/03/11 06:27:13;;;;;;;38.78;16.15;;;;;;;5.49;45.45;101293.22;5038218;28;20044;-64
2022/03/11 06:29:39;;;;;;;33.92;16.48;;;;;;;5.55;45.64;101296.28;5063155;28;20369;-65
2022/03/11 06:32:06;;;;;;;39.70;16.40;;;;;;;5.52;46.02;101300.91;5071439;28;20049;-64
2022/03/11 06:34:33;;;;;;;38.50;17.15;;;;;;;5.41;45.69;101301.66;5071696;28;20036;-65
2022/03/11 06:37:00;;;;;;;37.58;16.80;;;;;;;5.36;46.24;101304.59;5054500;28;20033;-65
2022/03/11 06:39:26;;;;;;;41.42;17.38;;;;;;;5.43;46.21;101299.75;5054871;28;20057;-64
2022/03/11 06:41:53;;;;;;;37.45;16.42;;;;;;;5.52;45.69;101287.75;5072310;28;20036;-65
2022/03/11 06:44:25;;;;;;;39.20;17.27;;;;;;;5.63;45.41;101294.88;5071623;28;20041;-64
2022/03/11 06:46:52;;;;;;;39.00;17.20;;;;;;;5.61;46.05;101297.63;5071107;28;20045;-65
2022/03/11 06:49:18;;;;;;;38.88;17.20;;;;;;;5.50;46.28;101293.13;5034370;28;20049;-65
2022/03/11 06:51:45;;;;;;;39.78;16.60;;;;;;;5.47;45.97;101309.09;5067407;28;20041;-65
2022/03/11 06:54:11;;;;;;;39.42;18.25;;;;;;;5.45;45.46;101304.91;5067109;28;20442;-65
2022/03/11 06:56:38;;;;;;;36.35;15.57;;;;;;;5.56;46.35;101297.94;5052428;28;20036;-65
2022/03/11 06:59:08;;;;;;;40.83;18.02;;;;;;;5.43;45.70;101297.13;5067099;28;20045;-64
2022/03/11 07:01:35;;;;;;;39.15;17.63;;;;;;;5.43;46.04;101302.38;5050954;28;20052;-65
2022/03/11 07:04:02;;;;;;;38.60;17.10;;;;;;;5.42;46.24;101310.38;5040501;28;20045;-65
2022/03/11 07:06:30;;;;;;;45.30;18.05;;;;;;;5.50;46.39;101311.53;5041785;28;20041;-65
2022/03/11 07:08:56;;;;;;;38.03;17.80;;;;;;;5.66;45.77;101307.84;5074873;28;20048;-65
2022/03/11 07:11:23;;;;;;;43.25;17.33;;;;;;;5.48;45.72;101312.59;5076230;28;20405;-65
2022/03/11 07:13:50;;;;;;;44.03;18.17;;;;;;;5.66;45.65;101311.31;5073679;28;20078;-65
2022/03/11 07:16:17;;;;;;;43.80;18.38;;;;;;;5.60;45.94;101308.25;5058777;28;20040;-65
2022/03/11 07:18:43;;;;;;;50.38;18.67;;;;;;;5.61;45.92;101313.41;5074845;28;20049;-65
2022/03/11 07:21:10;;;;;;;43.05;19.60;;;;;;;5.71;45.71;101327.63;5078172;28;20067;-65
2022/03/11 07:23:37;;;;;;;42.45;17.85;;;;;;;5.75;44.88;101313.28;5078172;28;20468;-65
2022/03/11 07:26:04;;;;;;;43.10;18.92;;;;;;;5.65;45.50;101311.41;5096044;28;20368;-65
2022/03/11 07:28:31;;;;;;;38.22;18.70;;;;;;;5.79;46.16;101315.72;5045165;28;20171;-65
2022/03/11 07:30:58;;;;;;;47.55;19.67;;;;;;;5.87;45.88;101316.81;5077938;28;20062;-65
2022/03/11 07:33:24;;;;;;;44.47;18.73;;;;;;;5.81;45.86;101312.00;5078058;28;20089;-65
2022/03/11 07:35:51;;;;;;;47.20;18.95;;;;;;;5.85;44.51;101321.38;5095913;28;20044;-65
2022/03/11 07:38:18;;;;;;;41.20;19.00;;;;;;;6.00;44.11;101315.97;5095709;28;20032;-65
2022/03/11 07:40:44;;;;;;;44.28;18.50;;;;;;;6.14;44.70;101319.31;5065473;28;20143;-65
2022/03/11 07:43:13;;;;;;;41.13;19.27;;;;;;;6.01;44.35;101315.06;5061760;28;20047;-65
2022/03/11 07:45:39;;;;;;;43.67;18.55;;;;;;;5.98;44.11;101315.25;5095500;28;20047;-65
2022/03/11 07:48:06;;;;;;;47.53;19.55;;;;;;;6.08;44.50;101316.28;5061059;28;20047;-65
2022/03/11 07:50:35;;;;;;;45.80;18.58;;;;;;;6.10;43.71;101317.00;5061232;28;20059;-65
2022/03/11 07:53:02;;;;;;;41.40;18.25;;;;;;;6.05;44.46;101312.06;5061352;28;20040;-64
2022/03/11 07:55:30;;;;;;;44.45;18.90;;;;;;;6.19;43.94;101302.34;5077439;28;20097;-64
2022/03/11 07:57:57;;;;;;;46.13;19.15;;;;;;;6.15;43.39;101302.56;5044632;28;20531;-64
2022/03/11 08:00:26;;;;;;;41.75;18.25;;;;;;;6.34;43.35;101302.03;5077344;28;20183;-64
2022/03/11 08:02:53;;;;;;;47.85;19.95;;;;;;;6.28;42.49;101296.41;5048822;28;20044;-64
2022/03/11 08:05:20;;;;;;;43.28;19.05;;;;;;;6.40;42.53;101295.47;5077369;28;20040;-64
2022/03/11 08:07:48;;;;;;;40.75;19.02;;;;;;;6.46;42.35;101294.19;5094921;28;20044;-64
2022/03/11 08:10:17;;;;;;;42.20;19.05;;;;;;;6.34;43.01;101317.84;5095760;28;20040;-64
2022/03/11 08:12:44;;;;;;;44.78;18.55;;;;;;;6.56;42.51;101286.44;5060464;28;20040;-64
2022/03/11 08:15:12;;;;;;;40.78;18.05;;;;;;;6.65;42.39;101281.31;5076982;28;20055;-65
2022/03/11 08:17:41;;;;;;;41.47;18.42;;;;;;;6.78;41.82;101288.31;5077056;28;20605;-65
2022/03/11 08:20:09;;;;;;;43.40;18.92;;;;;;;6.93;41.55;101287.16;5077075;28;20047;-65
2022/03/11 08:22:36;;;;;;;46.58;17.23;;;;;;;7.16;40.92;101292.44;5057082;28;20048;-65
2022/03/11 08:25:05;;;;;;;41.63;18.73;;;;;;;7.06;40.76;101290.53;5073745;28;20055;-65
2022/03/11 08:27:32;;;;;;;41.30;18.67;;;;;;;7.17;41.36;101286.19;5073292;28;20044;-64
2022/03/11 08:29:59;;;;;;;40.13;19.30;;;;;;;7.22;40.99;101282.28;5072326;28;20496;-64
2022/03/11 08:32:28;;;;;;;36.25;19.05;;;;;;;7.46;40.81;101274.22;5070290;28;20047;-64
2022/03/11 08:34:57;;;;;;;41.00;18.58;;;;;;;7.53;40.02;101276.38;5073941;28;20051;-64
2022/03/11 08:37:26;;;;;;;44.28;18.60;;;;;;;7.67;40.46;101269.03;5045382;28;20040;-64
2022/03/11 08:39:54;;;;;;;42.08;20.08;;;;;;;7.73;40.51;101273.00;5062961;28;20044;-64
2022/03/11 08:42:21;;;;;;;41.72;19.30;;;;;;;7.52;39.30;101270.25;5067265;28;20044;-63
2022/03/11 08:44:48;;;;;;;40.50;18.25;;;;;;;7.43;39.68;101253.34;5057916;28;20064;-63
2022/03/11 08:47:14;;;;;;;47.85;18.52;;;;;;;7.52;39.88;101267.63;5067888;28;20042;-63
2022/03/11 08:49:43;;;;;;;43.83;18.95;;;;;;;7.53;39.78;101256.13;5049643;28;20044;-64
2022/03/11 08:52:10;;;;;;;47.55;19.67;;;;;;;7.83;39.43;101247.53;5074822;28;20408;-63
2022/03/11 08:54:37;;;;;;;40.05;19.38;;;;;;;7.82;39.05;101258.19;5075381;28;20040;-64
2022/03/11 08:57:03;;;;;;;56.25;20.02;;;;;;;7.98;39.60;101244.59;5061984;28;20163;-63
2022/03/11 08:59:31;;;;;;;39.25;18.90;;;;;;;8.02;39.18;101246.03;5049604;28;20109;-64
2022/03/11 09:01:59;;;;;;;43.83;19.33;;;;;;;8.26;37.84;101241.38;5045359;28;20051;-63
2022/03/11 09:04:25;;;;;;;34.28;18.15;;;;;;;8.05;38.06;101237.84;5068941;28;20071;-63
2022/03/11 09:06:52;;;;;;;42.35;18.42;;;;;;;8.06;38.38;101236.91;5055704;28;20497;-63
2022/03/11 09:09:19;;;;;;;42.72;19.85;;;;;;;7.85;38.66;101239.47;5067280;28;20037;-64
2022/03/11 09:11:46;;;;;;;35.50;17.83;;;;;;;7.87;39.07;101233.09;5072715;28;20040;-63
2022/03/11 09:14:12;;;;;;;39.92;18.17;;;;;;;8.18;38.65;101224.47;5071528;28;20055;-63
2022/03/11 09:16:40;;;;;;;39.50;19.45;;;;;;;8.27;37.79;101227.19;5072336;28;20044;-63
2022/03/11 09:19:08;;;;;;;44.75;18.15;;;;;;;8.87;37.82;101239.03;5064834;28;20051;-64
2022/03/11 09:21:37;;;;;;;39.08;18.60;;;;;;;9.56;35.75;101230.41;5055150;28;20053;-64
2022/03/11 09:24:04;;;;;;;42.72;18.65;;;;;;;10.34;34.64;101226.03;5057161;28;20522;-64
2022/03/11 09:26:31;;;;;;;38.22;19.35;;;;;;;11.17;33.64;101236.06;5071433;28;20040;-64
2022/03/11 09:29:08;;;;;;;40.80;19.48;;;;;;;11.80;31.94;101235.31;5072943;28;20055;-64
2022/03/11 09:31:34;;;;;;;35.22;18.45;;;;;;;12.26;30.65;101222.81;5070307;28;20040;-64
2022/03/11 09:34:03;;;;;;;41.90;18.52;;;;;;;12.55;30.38;101232.38;5071718;28;20044;-65
2022/03/11 09:36:29;;;;;;;34.28;18.65;;;;;;;12.66;30.39;101224.13;5069985;28;20036;-64
2022/03/11 09:38:56;;;;;;;39.38;20.17;;;;;;;13.44;28.41;101219.72;5070728;28;20040;-66
2022/03/11 09:41:27;;;;;;;36.83;19.65;;;;;;;13.94;27.13;101220.69;5059242;28;20111;-65
2022/03/11 09:43:55;;;;;;;41.75;19.88;;;;;;;14.65;26.83;101213.88;5066677;28;20511;-65
2022/03/11 09:46:22;;;;;;;36.55;19.52;;;;;;;15.02;26.43;101219.66;5047353;28;20068;-65
2022/03/11 09:48:49;;;;;;;35.33;19.98;;;;;;;15.10;26.31;101219.63;5071713;28;20041;-65
2022/03/11 09:51:17;;;;;;;35.70;20.33;;;;;;;15.24;25.79;101216.22;5056213;28;20134;-65
2022/03/11 09:53:44;;;;;;;36.10;20.35;;;;;;;16.19;24.83;101201.84;5072594;28;20133;-65
2022/03/11 09:56:11;;;;;;;38.33;20.80;;;;;;;16.67;23.61;101201.56;5054480;28;20336;-65
2022/03/11 09:58:38;;;;;;;47.13;24.85;;;;;;;16.87;23.89;101194.66;5072656;28;20044;-65
2022/03/11 10:01:06;;;;;;;43.67;21.30;;;;;;;16.50;23.85;101200.91;5072009;28;20079;-63
2022/03/11 10:03:33;;;;;;;37.15;20.65;;;;;;;18.07;22.54;101189.91;5071472;28;20037;-62
2022/03/11 10:06:00;;;;;;;40.13;21.75;;;;;;;18.72;21.48;101197.81;5054126;28;20032;-64
2022/03/11 10:08:37;;;;;;;36.58;21.23;;;;;;;19.22;21.03;101201.25;5038287;28;20079;-62
2022/03/11 10:11:25;;;;;;;37.38;20.55;;;;;;;18.71;20.70;101193.50;5069174;28;20044;-62
2022/03/11 10:13:54;;;;;;;37.33;21.23;;;;;;;18.30;21.21;101192.38;5068764;28;20489;-62
2022/03/11 10:16:23;;;;;;;42.17;20.95;;;;;;;18.67;21.13;101195.75;5052297;28;20044;-64
2022/03/11 10:21:41;;;;;;;37.47;20.27;;;;;;;19.65;20.19;101192.91;5106958;27;20121;-65
2022/03/11 10:24:11;;;;;;;35.28;19.90;;;;;;;18.42;20.22;101200.72;5080641;28;20058;-65
2022/03/11 10:26:46;;;;;;;41.53;21.10;;;;;;;19.33;20.70;101203.34;5085038;28;20044;-65
2022/03/11 10:29:16;;;;;;;37.10;20.77;;;;;;;20.19;19.63;101188.44;5081396;28;20453;-66
2022/03/11 10:31:46;;;;;;;37.67;21.35;;;;;;;19.03;19.99;101188.53;5089784;28;20139;-66
2022/03/11 10:34:16;;;;;;;35.45;20.27;;;;;;;19.20;20.60;101184.47;5080484;28;20048;-66
2022/03/11 10:37:04;;;;;;;35.80;21.02;;;;;;;19.30;19.81;101189.47;5089521;28;20058;-66
2022/03/11 10:39:38;;;;;;;44.20;21.60;;;;;;;19.20;20.03;101194.41;5067525;28;20466;-66
2022/03/11 10:42:24;;;;;;;44.20;20.88;;;;;;;19.21;19.85;101185.31;5078710;28;20078;-66
2022/03/11 10:45:03;;;;;;;35.60;20.05;;;;;;;20.23;18.99;101180.78;5105632;28;20048;-66
2022/03/11 10:47:34;;;;;;;35.20;19.77;;;;;;;20.30;19.28;101178.94;5094303;28;20318;-66
2022/03/11 10:50:12;;;;;;;39.42;20.00;;;;;;;20.27;18.78;101168.59;5047753;28;20041;-64
2022/03/11 10:55:22;;;;;;;34.65;18.95;;;;;;;21.63;18.28;101156.19;5083181;28;20129;-67
2022/03/11 10:57:54;;;;;;;33.22;19.40;;;;;;;21.88;17.52;101161.59;5089048;28;20040;-67
2022/03/11 11:00:39;;;;;;;37.10;20.02;;;;;;;21.45;18.02;101157.72;5093811;28;20055;-69
2022/03/11 11:03:08;;;;;;;36.00;19.75;;;;;;;21.30;18.00;101162.53;5095662;28;20067;-66
2022/03/11 11:05:40;;;;;;;31.88;19.80;;;;;;;21.59;18.02;101163.88;5092011;28;20040;-67
2022/03/11 11:08:07;;;;;;;33.50;19.63;;;;;;;22.67;17.23;101161.97;5061559;28;20077;-67
2022/03/11 11:10:37;;;;;;;36.22;19.58;;;;;;;22.47;17.10;101167.59;5070250;28;20077;-66
2022/03/11 11:13:06;;;;;;;32.53;19.27;;;;;;;23.05;16.56;101165.50;5091658;28;20040;-67
2022/03/11 11:15:33;;;;;;;35.65;19.60;;;;;;;21.99;17.29;101157.34;5094027;28;20094;-66
2022/03/11 11:18:11;;;;;;;33.75;20.17;;;;;;;22.41;17.11;101154.94;5095946;28;20067;-66
2022/03/11 11:20:47;;;;;;;31.55;19.05;;;;;;;22.97;16.57;101151.22;5084002;28;20065;-67
2022/03/11 11:23:15;;;;;;;33.33;19.42;;;;;;;23.29;15.90;101151.06;5080292;28;20060;-67
2022/03/11 11:25:43;;;;;;;33.22;19.13;;;;;;;23.68;16.46;101154.25;5102218;28;20549;-67